Upper Hutt, New Zealand
Current Conditions -  °F | °C
As of 2:30 PM on Sunday 26 Oct 2014 (Local Time) from NZWN Reporting Station
Clear Clear  
Wind Chill: 61°   Ceiling: Unl
Heat Index: 61°   Visibility: 6mi
Dew Point: 46°   Wind: 24mph
Humidity: 59%   Direction: 360°N
Pressure: 29.85"   Gusts: 38mph
Location:  41.12°S, 175.07°E
Report Text: NZWN 260230Z AUTO 36021G33KT 9999 NCD 16/08 Q1011 NOSIG
Loading
Personal Weather Stations






























Interactive Weather Map
Tropical Storm Tracking
New forecast layout! Learn more

10-Day Weather Forecast

Advertisements
Track Severe Weather on mobile